sensor_id;sensor_type;location;lat;lon;timestamp;pressure;altitude;pressure_sealevel;temperature;humidity
17383;BME280;8809;51.892;8.384;2023-02-28T00:00:32;102049.13;;;0.29;100.00
17383;BME280;8809;51.892;8.384;2023-02-28T00:02:59;102051.69;;;0.29;100.00
17383;BME280;8809;51.892;8.384;2023-02-28T00:05:27;102050.50;;;0.26;100.00
17383;BME280;8809;51.892;8.384;2023-02-28T00:07:55;102051.25;;;0.25;100.00
17383;BME280;8809;51.892;8.384;2023-02-28T00:10:24;102053.47;;;0.22;100.00
17383;BME280;8809;51.892;8.384;2023-02-28T00:12:54;102051.47;;;0.19;100.00
17383;BME280;8809;51.892;8.384;2023-02-28T00:15:23;102045.31;;;0.17;100.00
17383;BME280;8809;51.892;8.384;2023-02-28T00:17:50;102039.84;;;0.14;100.00
17383;BME280;8809;51.892;8.384;2023-02-28T00:20:18;102044.81;;;0.13;100.00
17383;BME280;8809;51.892;8.384;2023-02-28T00:22:48;102039.22;;;0.08;100.00
17383;BME280;8809;51.892;8.384;2023-02-28T00:25:19;102040.88;;;0.08;100.00
17383;BME280;8809;51.892;8.384;2023-02-28T00:27:47;102036.31;;;0.05;100.00
17383;BME280;8809;51.892;8.384;2023-02-28T00:30:18;102050.63;;;0.03;100.00
17383;BME280;8809;51.892;8.384;2023-02-28T00:32:45;102046.97;;;0.01;100.00
17383;BME280;8809;51.892;8.384;2023-02-28T00:35:13;102046.69;;;-0.02;100.00
17383;BME280;8809;51.892;8.384;2023-02-28T00:37:40;102050.91;;;-0.03;100.00
17383;BME280;8809;51.892;8.384;2023-02-28T00:40:10;102050.72;;;-0.04;100.00
17383;BME280;8809;51.892;8.384;2023-02-28T00:42:40;102053.88;;;-0.07;100.00
17383;BME280;8809;51.892;8.384;2023-02-28T00:45:08;102056.59;;;-0.05;100.00
17383;BME280;8809;51.892;8.384;2023-02-28T00:47:37;102057.34;;;-0.06;100.00
17383;BME280;8809;51.892;8.384;2023-02-28T00:50:05;102062.00;;;-0.11;100.00
17383;BME280;8809;51.892;8.384;2023-02-28T00:52:32;102064.56;;;-0.11;100.00
17383;BME280;8809;51.892;8.384;2023-02-28T00:55:00;102055.13;;;-0.19;100.00
17383;BME280;8809;51.892;8.384;2023-02-28T00:57:27;102056.81;;;-0.19;100.00
17383;BME280;8809;51.892;8.384;2023-02-28T00:59:54;102057.84;;;-0.17;100.00
17383;BME280;8809;51.892;8.384;2023-02-28T01:02:21;102064.63;;;-0.18;100.00
17383;BME280;8809;51.892;8.384;2023-02-28T01:04:49;102065.53;;;-0.17;100.00
17383;BME280;8809;51.892;8.384;2023-02-28T01:07:16;102064.50;;;-0.19;100.00
17383;BME280;8809;51.892;8.384;2023-02-28T01:09:43;102055.72;;;-0.21;100.00
17383;BME280;8809;51.892;8.384;2023-02-28T01:12:11;102061.09;;;-0.27;100.00
17383;BME280;8809;51.892;8.384;2023-02-28T01:14:38;102060.16;;;-0.27;100.00
17383;BME280;8809;51.892;8.384;2023-02-28T01:17:06;102062.00;;;-0.26;100.00
17383;BME280;8809;51.892;8.384;2023-02-28T01:19:33;102055.03;;;-0.27;100.00
17383;BME280;8809;51.892;8.384;2023-02-28T01:22:03;102056.69;;;-0.28;100.00
17383;BME280;8809;51.892;8.384;2023-02-28T01:24:30;102042.97;;;-0.28;100.00
17383;BME280;8809;51.892;8.384;2023-02-28T01:26:57;102050.53;;;-0.30;100.00
17383;BME280;8809;51.892;8.384;2023-02-28T01:29:24;102054.56;;;-0.32;100.00
17383;BME280;8809;51.892;8.384;2023-02-28T01:31:52;102050.19;;;-0.33;100.00
17383;BME280;8809;51.892;8.384;2023-02-28T01:34:19;102058.63;;;-0.34;100.00
17383;BME280;8809;51.892;8.384;2023-02-28T01:36:46;102055.13;;;-0.34;100.00
17383;BME280;8809;51.892;8.384;2023-02-28T01:39:14;102050.59;;;-0.37;100.00
17383;BME280;8809;51.892;8.384;2023-02-28T01:41:41;102049.38;;;-0.41;100.00
17383;BME280;8809;51.892;8.384;2023-02-28T01:47:10;102042.06;;;-0.45;100.00
17383;BME280;8809;51.892;8.384;2023-02-28T01:49:37;102053.97;;;-0.45;100.00
17383;BME280;8809;51.892;8.384;2023-02-28T01:52:05;102052.75;;;-0.49;100.00
17383;BME280;8809;51.892;8.384;2023-02-28T01:54:37;102048.03;;;-0.53;100.00
17383;BME280;8809;51.892;8.384;2023-02-28T01:57:07;102050.59;;;-0.53;100.00
17383;BME280;8809;51.892;8.384;2023-02-28T01:59:39;102054.63;;;-0.55;100.00
17383;BME280;8809;51.892;8.384;2023-02-28T02:02:16;102045.13;;;-0.56;100.00
17383;BME280;8809;51.892;8.384;2023-02-28T02:04:50;102050.25;;;-0.56;100.00
17383;BME280;8809;51.892;8.384;2023-02-28T02:07:20;102057.63;;;-0.59;100.00
17383;BME280;8809;51.892;8.384;2023-02-28T02:09:48;102053.25;;;-0.60;100.00
17383;BME280;8809;51.892;8.384;2023-02-28T02:12:24;102056.56;;;-0.61;100.00
17383;BME280;8809;51.892;8.384;2023-02-28T02:15:00;102053.81;;;-0.62;100.00
17383;BME280;8809;51.892;8.384;2023-02-28T02:17:35;102054.56;;;-0.63;100.00
17383;BME280;8809;51.892;8.384;2023-02-28T02:20:46;102051.81;;;-0.65;100.00
17383;BME280;8809;51.892;8.384;2023-02-28T02:23:51;102050.91;;;-0.65;100.00
17383;BME280;8809;51.892;8.384;2023-02-28T02:29:43;102051.50;;;-0.68;100.00
17383;BME280;8809;51.892;8.384;2023-02-28T02:35:38;102050.81;;;-0.74;100.00
17383;BME280;8809;51.892;8.384;2023-02-28T02:38:20;102051.56;;;-0.75;100.00
17383;BME280;8809;51.892;8.384;2023-02-28T02:40:58;102049.75;;;-0.76;100.00
17383;BME280;8809;51.892;8.384;2023-02-28T02:43:32;102053.81;;;-0.78;100.00
17383;BME280;8809;51.892;8.384;2023-02-28T02:46:04;102045.22;;;-0.79;100.00
17383;BME280;8809;51.892;8.384;2023-02-28T02:48:35;102039.00;;;-0.81;100.00
17383;BME280;8809;51.892;8.384;2023-02-28T02:51:09;102049.81;;;-0.83;100.00
17383;BME280;8809;51.892;8.384;2023-02-28T02:53:42;102044.53;;;-0.85;100.00
17383;BME280;8809;51.892;8.384;2023-02-28T02:56:15;102050.38;;;-0.86;100.00
17383;BME280;8809;51.892;8.384;2023-02-28T02:58:44;102046.59;;;-0.89;100.00
17383;BME280;8809;51.892;8.384;2023-02-28T03:01:17;102045.69;;;-0.90;100.00
17383;BME280;8809;51.892;8.384;2023-02-28T03:03:54;102050.63;;;-0.91;100.00
17383;BME280;8809;51.892;8.384;2023-02-28T03:06:23;102048.81;;;-0.92;100.00
17383;BME280;8809;51.892;8.384;2023-02-28T03:08:51;102055.41;;;-0.94;100.00
17383;BME280;8809;51.892;8.384;2023-02-28T03:11:18;102051.81;;;-0.96;100.00
17383;BME280;8809;51.892;8.384;2023-02-28T03:14:05;102045.59;;;-0.98;100.00
17383;BME280;8809;51.892;8.384;2023-02-28T03:16:56;102041.22;;;-0.99;100.00
17383;BME280;8809;51.892;8.384;2023-02-28T03:19:51;102050.53;;;-1.00;100.00
17383;BME280;8809;51.892;8.384;2023-02-28T03:22:40;102055.50;;;-1.01;100.00
17383;BME280;8809;51.892;8.384;2023-02-28T03:25:20;102052.59;;;-1.04;100.00
17383;BME280;8809;51.892;8.384;2023-02-28T03:27:55;102046.56;;;-1.05;100.00
17383;BME280;8809;51.892;8.384;2023-02-28T03:30:27;102047.47;;;-1.04;100.00
17383;BME280;8809;51.892;8.384;2023-02-28T03:32:58;102048.78;;;-1.08;100.00
17383;BME280;8809;51.892;8.384;2023-02-28T03:35:30;102048.97;;;-1.06;100.00
17383;BME280;8809;51.892;8.384;2023-02-28T03:38:13;102045.72;;;-1.13;100.00
17383;BME280;8809;51.892;8.384;2023-02-28T03:40:43;102043.16;;;-1.13;100.00
17383;BME280;8809;51.892;8.384;2023-02-28T03:43:14;102043.16;;;-1.13;100.00
17383;BME280;8809;51.892;8.384;2023-02-28T03:45:44;102042.25;;;-1.13;100.00
17383;BME280;8809;51.892;8.384;2023-02-28T03:48:18;102042.84;;;-1.16;100.00
17383;BME280;8809;51.892;8.384;2023-02-28T03:50:49;102046.13;;;-1.17;100.00
17383;BME280;8809;51.892;8.384;2023-02-28T03:53:24;102046.69;;;-1.19;100.00
17383;BME280;8809;51.892;8.384;2023-02-28T03:55:55;102043.97;;;-1.21;100.00
17383;BME280;8809;51.892;8.384;2023-02-28T03:58:28;102045.44;;;-1.23;100.00
17383;BME280;8809;51.892;8.384;2023-02-28T04:01:00;102042.69;;;-1.24;100.00
17383;BME280;8809;51.892;8.384;2023-02-28T04:03:35;102043.47;;;-1.25;100.00
17383;BME280;8809;51.892;8.384;2023-02-28T04:06:02;102047.31;;;-1.29;100.00
17383;BME280;8809;51.892;8.384;2023-02-28T04:08:32;102041.13;;;-1.31;100.00
17383;BME280;8809;51.892;8.384;2023-02-28T04:11:05;102048.81;;;-1.31;100.00
17383;BME280;8809;51.892;8.384;2023-02-28T04:13:33;102050.28;;;-1.33;100.00
17383;BME280;8809;51.892;8.384;2023-02-28T04:16:02;102046.66;;;-1.35;100.00
17383;BME280;8809;51.892;8.384;2023-02-28T04:18:37;102045.56;;;-1.37;100.00
17383;BME280;8809;51.892;8.384;2023-02-28T04:21:05;102048.69;;;-1.39;100.00
17383;BME280;8809;51.892;8.384;2023-02-28T04:23:33;102039.38;;;-1.39;100.00
17383;BME280;8809;51.892;8.384;2023-02-28T04:26:00;102045.41;;;-1.38;100.00
17383;BME280;8809;51.892;8.384;2023-02-28T04:28:28;102049.44;;;-1.40;100.00
17383;BME280;8809;51.892;8.384;2023-02-28T04:30:55;102049.44;;;-1.40;100.00
17383;BME280;8809;51.892;8.384;2023-02-28T04:33:22;102049.44;;;-1.40;100.00
17383;BME280;8809;51.892;8.384;2023-02-28T04:35:58;102045.78;;;-1.42;100.00
17383;BME280;8809;51.892;8.384;2023-02-28T04:38:25;102050.00;;;-1.43;100.00
17383;BME280;8809;51.892;8.384;2023-02-28T04:40:54;102040.91;;;-1.48;100.00
17383;BME280;8809;51.892;8.384;2023-02-28T04:43:23;102041.63;;;-1.49;100.00
17383;BME280;8809;51.892;8.384;2023-02-28T04:45:50;102042.38;;;-1.50;100.00
17383;BME280;8809;51.892;8.384;2023-02-28T04:48:17;102041.28;;;-1.52;100.00
17383;BME280;8809;51.892;8.384;2023-02-28T04:50:44;102036.00;;;-1.54;100.00
17383;BME280;8809;51.892;8.384;2023-02-28T04:53:11;102042.78;;;-1.54;100.00
17383;BME280;8809;51.892;8.384;2023-02-28T04:55:38;102034.75;;;-1.57;100.00
17383;BME280;8809;51.892;8.384;2023-02-28T04:58:07;102038.06;;;-1.58;100.00
17383;BME280;8809;51.892;8.384;2023-02-28T05:00:34;102036.22;;;-1.59;100.00
17383;BME280;8809;51.892;8.384;2023-02-28T05:03:01;102042.81;;;-1.61;100.00
17383;BME280;8809;51.892;8.384;2023-02-28T05:05:29;102038.28;;;-1.64;100.00
17383;BME280;8809;51.892;8.384;2023-02-28T05:07:56;102044.88;;;-1.66;100.00
17383;BME280;8809;51.892;8.384;2023-02-28T05:10:23;102045.78;;;-1.65;100.00
17383;BME280;8809;51.892;8.384;2023-02-28T05:12:50;102043.97;;;-1.66;100.00
17383;BME280;8809;51.892;8.384;2023-02-28T05:15:18;102050.00;;;-1.66;100.00
17383;BME280;8809;51.892;8.384;2023-02-28T05:17:45;102047.25;;;-1.67;100.00
17383;BME280;8809;51.892;8.384;2023-02-28T05:20:15;102051.28;;;-1.69;100.00
17383;BME280;8809;51.892;8.384;2023-02-28T05:22:43;102053.47;;;-1.72;100.00
17383;BME280;8809;51.892;8.384;2023-02-28T05:25:12;102054.25;;;-1.73;100.00
17383;BME280;8809;51.892;8.384;2023-02-28T05:27:41;102057.53;;;-1.74;100.00
17383;BME280;8809;51.892;8.384;2023-02-28T05:30:09;102059.00;;;-1.76;100.00
17383;BME280;8809;51.892;8.384;2023-02-28T05:32:40;102059.56;;;-1.79;100.00
17383;BME280;8809;51.892;8.384;2023-02-28T05:35:09;102066.88;;;-1.82;100.00
17383;BME280;8809;51.892;8.384;2023-02-28T05:37:36;102076.19;;;-1.82;100.00
17383;BME280;8809;51.892;8.384;2023-02-28T05:40:07;102061.63;;;-1.83;100.00
17383;BME280;8809;51.892;8.384;2023-02-28T05:42:35;102068.53;;;-1.82;100.00
17383;BME280;8809;51.892;8.384;2023-02-28T05:45:04;102059.22;;;-1.82;100.00
17383;BME280;8809;51.892;8.384;2023-02-28T05:47:32;102061.63;;;-1.83;100.00
17383;BME280;8809;51.892;8.384;2023-02-28T05:50:09;102064.19;;;-1.83;100.00
17383;BME280;8809;51.892;8.384;2023-02-28T05:52:37;102064.19;;;-1.83;100.00
17383;BME280;8809;51.892;8.384;2023-02-28T05:55:05;102069.44;;;-1.82;100.00
17383;BME280;8809;51.892;8.384;2023-02-28T05:57:33;102066.88;;;-1.82;100.00
17383;BME280;8809;51.892;8.384;2023-02-28T06:00:05;102068.53;;;-1.82;100.00
17383;BME280;8809;51.892;8.384;2023-02-28T06:02:33;102059.06;;;-1.83;100.00
17383;BME280;8809;51.892;8.384;2023-02-28T06:05:01;102061.03;;;-1.81;100.00
17383;BME280;8809;51.892;8.384;2023-02-28T06:07:28;102067.78;;;-1.81;100.00
17383;BME280;8809;51.892;8.384;2023-02-28T06:09:55;102063.59;;;-1.81;100.00
17383;BME280;8809;51.892;8.384;2023-02-28T06:12:22;102066.88;;;-1.82;100.00
17383;BME280;8809;51.892;8.384;2023-02-28T06:14:51;102067.78;;;-1.81;100.00
17383;BME280;8809;51.892;8.384;2023-02-28T06:17:18;102067.78;;;-1.81;100.00
17383;BME280;8809;51.892;8.384;2023-02-28T06:19:46;102074.41;;;-1.83;100.00
17383;BME280;8809;51.892;8.384;2023-02-28T06:22:14;102071.84;;;-1.83;100.00
17383;BME280;8809;51.892;8.384;2023-02-28T06:24:42;102073.50;;;-1.84;100.00
17383;BME280;8809;51.892;8.384;2023-02-28T06:27:09;102070.75;;;-1.85;100.00
17383;BME280;8809;51.892;8.384;2023-02-28T06:29:36;102070.75;;;-1.85;100.00
17383;BME280;8809;51.892;8.384;2023-02-28T06:32:05;102077.34;;;-1.88;100.00
17383;BME280;8809;51.892;8.384;2023-02-28T06:34:32;102075.69;;;-1.87;100.00
17383;BME280;8809;51.892;8.384;2023-02-28T06:37:00;102079.91;;;-1.88;100.00
17383;BME280;8809;51.892;8.384;2023-02-28T06:39:29;102078.06;;;-1.89;100.00
17383;BME280;8809;51.892;8.384;2023-02-28T06:41:56;102085.75;;;-1.89;100.00
17383;BME280;8809;51.892;8.384;2023-02-28T06:44:24;102078.06;;;-1.89;100.00
17383;BME280;8809;51.892;8.384;2023-02-28T06:46:51;102087.56;;;-1.88;100.00
17383;BME280;8809;51.892;8.384;2023-02-28T06:49:18;102084.84;;;-1.89;100.00
17383;BME280;8809;51.892;8.384;2023-02-28T06:51:45;102080.63;;;-1.89;100.00
17383;BME280;8809;51.892;8.384;2023-02-28T06:54:12;102089.22;;;-1.88;100.00
17383;BME280;8809;51.892;8.384;2023-02-28T06:56:41;102093.41;;;-1.89;100.00
17383;BME280;8809;51.892;8.384;2023-02-28T06:59:08;102096.16;;;-1.87;100.00
17383;BME280;8809;51.892;8.384;2023-02-28T07:01:35;102091.03;;;-1.87;100.00
17383;BME280;8809;51.892;8.384;2023-02-28T07:04:04;102096.34;;;-1.85;100.00
17383;BME280;8809;51.892;8.384;2023-02-28T07:06:32;102099.63;;;-1.87;100.00
17383;BME280;8809;51.892;8.384;2023-02-28T07:08:59;102106.38;;;-1.87;100.00
17383;BME280;8809;51.892;8.384;2023-02-28T07:11:27;102106.56;;;-1.85;100.00
17383;BME280;8809;51.892;8.384;2023-02-28T07:13:56;102116.78;;;-1.85;100.00
17383;BME280;8809;51.892;8.384;2023-02-28T07:16:24;102116.06;;;-1.84;100.00
17383;BME280;8809;51.892;8.384;2023-02-28T07:18:52;102115.31;;;-1.83;100.00
17383;BME280;8809;51.892;8.384;2023-02-28T07:21:20;102120.44;;;-1.83;100.00
17383;BME280;8809;51.892;8.384;2023-02-28T07:23:47;102115.31;;;-1.83;100.00
17383;BME280;8809;51.892;8.384;2023-02-28T07:26:16;102124.25;;;-1.80;100.00
17383;BME280;8809;51.892;8.384;2023-02-28T07:28:45;102121.69;;;-1.80;100.00
17383;BME280;8809;51.892;8.384;2023-02-28T07:31:15;102122.78;;;-1.78;100.00
17383;BME280;8809;51.892;8.384;2023-02-28T07:33:43;102129.72;;;-1.77;100.00
17383;BME280;8809;51.892;8.384;2023-02-28T07:36:13;102125.69;;;-1.75;100.00
17383;BME280;8809;51.892;8.384;2023-02-28T07:38:41;102131.13;;;-1.72;100.00
17383;BME280;8809;51.892;8.384;2023-02-28T07:41:09;102125.28;;;-1.71;100.00
17383;BME280;8809;51.892;8.384;2023-02-28T07:43:37;102121.25;;;-1.69;100.00
17383;BME280;8809;51.892;8.384;2023-02-28T07:46:07;102131.84;;;-1.66;100.00
17383;BME280;8809;51.892;8.384;2023-02-28T07:48:36;102128.88;;;-1.62;100.00
17383;BME280;8809;51.892;8.384;2023-02-28T07:51:04;102129.25;;;-1.59;100.00
17383;BME280;8809;51.892;8.384;2023-02-28T07:53:31;102129.94;;;-1.53;100.00
17383;BME280;8809;51.892;8.384;2023-02-28T07:56:00;102133.75;;;-1.49;100.00
17383;BME280;8809;51.892;8.384;2023-02-28T07:58:29;102129.19;;;-1.44;100.00
17383;BME280;8809;51.892;8.384;2023-02-28T08:01:04;102127.13;;;-1.40;100.00
17383;BME280;8809;51.892;8.384;2023-02-28T08:03:31;102133.69;;;-1.35;100.00
17383;BME280;8809;51.892;8.384;2023-02-28T08:06:00;102129.97;;;-1.30;100.00
17383;BME280;8809;51.892;8.384;2023-02-28T08:08:28;102128.81;;;-1.25;100.00
17383;BME280;8809;51.892;8.384;2023-02-28T08:10:59;102133.75;;;-1.19;100.00
17383;BME280;8809;51.892;8.384;2023-02-28T08:13:27;102128.38;;;-1.14;100.00
17383;BME280;8809;51.892;8.384;2023-02-28T08:15:55;102130.75;;;-1.08;100.00
17383;BME280;8809;51.892;8.384;2023-02-28T08:18:23;102123.56;;;-1.03;100.00
17383;BME280;8809;51.892;8.384;2023-02-28T08:20:51;102125.00;;;-0.98;100.00
17383;BME280;8809;51.892;8.384;2023-02-28T08:23:19;102120.53;;;-0.92;100.00
17383;BME280;8809;51.892;8.384;2023-02-28T08:25:53;102128.88;;;-0.86;100.00
17383;BME280;8809;51.892;8.384;2023-02-28T08:28:20;102133.06;;;-0.80;100.00
17383;BME280;8809;51.892;8.384;2023-02-28T08:30:47;102131.91;;;-0.75;100.00
17383;BME280;8809;51.892;8.384;2023-02-28T08:33:14;102121.44;;;-0.69;100.00
17383;BME280;8809;51.892;8.384;2023-02-28T08:35:42;102125.41;;;-0.64;100.00
17383;BME280;8809;51.892;8.384;2023-02-28T08:38:09;102124.56;;;-0.56;100.00
17383;BME280;8809;51.892;8.384;2023-02-28T08:40:38;102129.66;;;-0.49;100.00
17383;BME280;8809;51.892;8.384;2023-02-28T08:43:05;102128.66;;;-0.42;100.00
17383;BME280;8809;51.892;8.384;2023-02-28T08:45:33;102126.94;;;-0.34;100.00
17383;BME280;8809;51.892;8.384;2023-02-28T08:48:00;102132.13;;;-0.26;100.00
17383;BME280;8809;51.892;8.384;2023-02-28T08:50:30;102133.88;;;-0.18;100.00
17383;BME280;8809;51.892;8.384;2023-02-28T08:52:57;102135.03;;;-0.07;100.00
17383;BME280;8809;51.892;8.384;2023-02-28T08:55:25;102130.88;;;0.02;100.00
17383;BME280;8809;51.892;8.384;2023-02-28T08:57:54;102136.09;;;0.11;100.00
17383;BME280;8809;51.892;8.384;2023-02-28T09:00:22;102136.16;;;0.19;100.00
17383;BME280;8809;51.892;8.384;2023-02-28T09:02:49;102130.22;;;0.27;100.00
17383;BME280;8809;51.892;8.384;2023-02-28T09:05:17;102134.50;;;0.35;100.00
17383;BME280;8809;51.892;8.384;2023-02-28T09:07:44;102135.47;;;0.45;100.00
17383;BME280;8809;51.892;8.384;2023-02-28T09:10:11;102143.41;;;0.55;100.00
17383;BME280;8809;51.892;8.384;2023-02-28T09:12:38;102139.81;;;0.61;100.00
17383;BME280;8809;51.892;8.384;2023-02-28T09:15:08;102138.94;;;0.69;100.00
17383;BME280;8809;51.892;8.384;2023-02-28T09:17:35;102137.50;;;0.80;100.00
17383;BME280;8809;51.892;8.384;2023-02-28T09:20:07;102142.69;;;0.89;100.00
17383;BME280;8809;51.892;8.384;2023-02-28T09:22:34;102134.00;;;0.95;100.00
17383;BME280;8809;51.892;8.384;2023-02-28T09:25:01;102130.84;;;1.06;100.00
17383;BME280;8809;51.892;8.384;2023-02-28T09:27:28;102130.00;;;1.15;100.00
17383;BME280;8809;51.892;8.384;2023-02-28T09:29:55;102128.38;;;1.24;100.00
17383;BME280;8809;51.892;8.384;2023-02-28T09:32:24;102123.25;;;1.32;100.00
17383;BME280;8809;51.892;8.384;2023-02-28T09:34:51;102119.34;;;1.44;100.00
17383;BME280;8809;51.892;8.384;2023-02-28T09:37:18;102136.63;;;1.54;100.00
17383;BME280;8809;51.892;8.384;2023-02-28T09:39:45;102134.53;;;1.67;100.00
17383;BME280;8809;51.892;8.384;2023-02-28T09:42:21;102140.94;;;1.79;100.00
17383;BME280;8809;51.892;8.384;2023-02-28T09:44:50;102131.88;;;1.92;99.30
17383;BME280;8809;51.892;8.384;2023-02-28T09:47:25;102135.38;;;2.01;99.45
17383;BME280;8809;51.892;8.384;2023-02-28T09:49:57;102138.53;;;2.07;100.00
17383;BME280;8809;51.892;8.384;2023-02-28T09:52:29;102145.94;;;2.12;100.00
17383;BME280;8809;51.892;8.384;2023-02-28T09:55:19;102131.56;;;2.14;100.00
17383;BME280;8809;51.892;8.384;2023-02-28T09:57:47;102133.72;;;2.18;100.00
17383;BME280;8809;51.892;8.384;2023-02-28T10:00:19;102135.81;;;2.22;100.00
17383;BME280;8809;51.892;8.384;2023-02-28T10:03:02;102140.66;;;2.28;100.00
17383;BME280;8809;51.892;8.384;2023-02-28T10:05:37;102139.28;;;2.32;100.00
17383;BME280;8809;51.892;8.384;2023-02-28T10:08:13;102139.00;;;2.37;100.00
17383;BME280;8809;51.892;8.384;2023-02-28T10:10:43;102137.63;;;2.41;100.00
17383;BME280;8809;51.892;8.384;2023-02-28T10:13:16;102153.84;;;2.48;100.00
17383;BME280;8809;51.892;8.384;2023-02-28T10:15:46;102152.63;;;2.53;100.00
17383;BME280;8809;51.892;8.384;2023-02-28T10:18:19;102152.78;;;2.55;100.00
17383;BME280;8809;51.892;8.384;2023-02-28T10:20:50;102155.81;;;2.59;100.00
17383;BME280;8809;51.892;8.384;2023-02-28T10:23:21;102148.34;;;2.63;100.00
17383;BME280;8809;51.892;8.384;2023-02-28T10:25:54;102139.44;;;2.68;100.00
17383;BME280;8809;51.892;8.384;2023-02-28T10:28:25;102153.66;;;2.73;100.00
17383;BME280;8809;51.892;8.384;2023-02-28T10:30:53;102139.41;;;2.76;100.00
17383;BME280;8809;51.892;8.384;2023-02-28T10:33:23;102149.38;;;2.82;100.00
17383;BME280;8809;51.892;8.384;2023-02-28T10:35:52;102143.94;;;2.87;100.00
17383;BME280;8809;51.892;8.384;2023-02-28T10:38:21;102141.31;;;2.96;100.00
17383;BME280;8809;51.892;8.384;2023-02-28T10:40:48;102131.75;;;3.04;100.00
17383;BME280;8809;51.892;8.384;2023-02-28T10:43:21;102132.00;;;3.15;100.00
17383;BME280;8809;51.892;8.384;2023-02-28T10:45:56;102144.38;;;3.28;100.00
17383;BME280;8809;51.892;8.384;2023-02-28T10:48:33;102145.09;;;3.44;100.00
17383;BME280;8809;51.892;8.384;2023-02-28T10:51:07;102149.72;;;3.57;100.00
17383;BME280;8809;51.892;8.384;2023-02-28T10:53:38;102127.16;;;3.73;100.00
17383;BME280;8809;51.892;8.384;2023-02-28T10:56:17;102129.47;;;3.89;100.00
17383;BME280;8809;51.892;8.384;2023-02-28T10:58:52;102130.31;;;3.98;100.00
17383;BME280;8809;51.892;8.384;2023-02-28T11:01:22;102130.31;;;3.98;100.00
17383;BME280;8809;51.892;8.384;2023-02-28T11:03:51;102127.88;;;3.99;100.00
17383;BME280;8809;51.892;8.384;2023-02-28T11:06:23;102125.59;;;4.02;100.00
17383;BME280;8809;51.892;8.384;2023-02-28T11:08:54;102129.72;;;4.00;100.00
17383;BME280;8809;51.892;8.384;2023-02-28T11:11:24;102131.38;;;4.00;100.00
17383;BME280;8809;51.892;8.384;2023-02-28T11:13:55;102128.44;;;4.05;100.00
17383;BME280;8809;51.892;8.384;2023-02-28T11:16:32;102130.56;;;4.09;100.00
17383;BME280;8809;51.892;8.384;2023-02-28T11:19:01;102130.84;;;4.13;100.00
17383;BME280;8809;51.892;8.384;2023-02-28T11:21:33;102125.53;;;4.30;100.00
17383;BME280;8809;51.892;8.384;2023-02-28T11:24:12;102122.94;;;4.48;100.00
17383;BME280;8809;51.892;8.384;2023-02-28T11:26:44;102126.97;;;4.55;98.68
17383;BME280;8809;51.892;8.384;2023-02-28T11:29:17;102129.59;;;4.65;100.00
17383;BME280;8809;51.892;8.384;2023-02-28T11:32:09;102108.59;;;4.81;100.00
17383;BME280;8809;51.892;8.384;2023-02-28T11:34:40;102118.34;;;4.94;100.00
17383;BME280;8809;51.892;8.384;2023-02-28T11:37:15;102107.53;;;5.08;97.96
17383;BME280;8809;51.892;8.384;2023-02-28T11:39:44;102111.56;;;5.14;98.67
17383;BME280;8809;51.892;8.384;2023-02-28T11:42:24;102112.25;;;5.32;95.11
17383;BME280;8809;51.892;8.384;2023-02-28T11:45:18;102106.06;;;5.50;92.58
17383;BME280;8809;51.892;8.384;2023-02-28T11:47:56;102111.78;;;5.67;92.07
17383;BME280;8809;51.892;8.384;2023-02-28T11:50:45;102114.25;;;5.75;92.02
17383;BME280;8809;51.892;8.384;2023-02-28T11:53:23;102102.84;;;5.83;93.52
17383;BME280;8809;51.892;8.384;2023-02-28T11:55:56;102097.94;;;5.96;93.86
17383;BME280;8809;51.892;8.384;2023-02-28T11:58:46;102090.56;;;6.01;94.88
17383;BME280;8809;51.892;8.384;2023-02-28T12:01:31;102098.06;;;6.08;94.20
17383;BME280;8809;51.892;8.384;2023-02-28T12:04:21;102083.41;;;6.09;85.92
17383;BME280;8809;51.892;8.384;2023-02-28T12:06:57;102086.13;;;6.10;92.38
17383;BME280;8809;51.892;8.384;2023-02-28T12:09:39;102081.88;;;6.11;85.53
17383;BME280;8809;51.892;8.384;2023-02-28T12:12:22;102073.19;;;6.10;90.10
17383;BME280;8809;51.892;8.384;2023-02-28T12:15:13;102074.38;;;6.04;88.53
17383;BME280;8809;51.892;8.384;2023-02-28T12:17:54;102075.00;;;6.01;90.21
17383;BME280;8809;51.892;8.384;2023-02-28T12:20:30;102073.69;;;6.06;93.21
17383;BME280;8809;51.892;8.384;2023-02-28T12:23:17;102064.09;;;6.15;95.61
17383;BME280;8809;51.892;8.384;2023-02-28T12:26:00;102057.88;;;6.23;95.20
17383;BME280;8809;51.892;8.384;2023-02-28T12:28:33;102057.72;;;6.32;93.51
17383;BME280;8809;51.892;8.384;2023-02-28T12:31:06;102064.72;;;6.33;91.13
17383;BME280;8809;51.892;8.384;2023-02-28T12:33:42;102059.44;;;6.21;87.16
17383;BME280;8809;51.892;8.384;2023-02-28T12:36:16;102056.06;;;6.22;92.61
17383;BME280;8809;51.892;8.384;2023-02-28T12:38:47;102064.34;;;6.18;89.64
17383;BME280;8809;51.892;8.384;2023-02-28T12:41:20;102060.06;;;6.29;92.78
17383;BME280;8809;51.892;8.384;2023-02-28T12:43:55;102056.25;;;6.36;94.54
17383;BME280;8809;51.892;8.384;2023-02-28T12:46:24;102043.41;;;6.47;93.03
17383;BME280;8809;51.892;8.384;2023-02-28T12:48:56;102045.34;;;6.50;94.06
17383;BME280;8809;51.892;8.384;2023-02-28T12:51:25;102035.31;;;6.54;94.56
17383;BME280;8809;51.892;8.384;2023-02-28T12:53:59;102043.22;;;6.56;94.88
17383;BME280;8809;51.892;8.384;2023-02-28T12:56:35;102047.75;;;6.58;94.90
17383;BME280;8809;51.892;8.384;2023-02-28T12:59:11;102039.69;;;6.65;94.65
17383;BME280;8809;51.892;8.384;2023-02-28T13:05:00;102033.75;;;6.56;89.41
17383;BME280;8809;51.892;8.384;2023-02-28T13:08:03;102029.75;;;6.60;94.97
17383;BME280;8809;51.892;8.384;2023-02-28T13:10:40;102023.03;;;6.52;97.10
17383;BME280;8809;51.892;8.384;2023-02-28T13:13:15;102017.78;;;6.40;92.74
17383;BME280;8809;51.892;8.384;2023-02-28T13:15:58;102017.00;;;6.41;90.34
17383;BME280;8809;51.892;8.384;2023-02-28T13:18:32;102014.78;;;6.36;90.18
17383;BME280;8809;51.892;8.384;2023-02-28T13:21:02;102011.16;;;6.44;91.22
17383;BME280;8809;51.892;8.384;2023-02-28T13:23:58;102014.22;;;6.50;90.75
17383;BME280;8809;51.892;8.384;2023-02-28T13:29:43;102024.91;;;6.64;81.21
17383;BME280;8809;51.892;8.384;2023-02-28T13:32:32;102004.41;;;6.67;84.88